Scroll down
FLIGHT INFORMATION
Alaska Airlines

ASA15

At Arrival Gate

KBOS
 KSEA
DATE: 2019-12-23
GATE:  -
GATE DEPARTURE: 00:11
TAKEOFF: 00:23
DATE: 2019-12-23
GATE:  -
LANDING: 06:19
GATE ARRIVAL: 06:26
FLIGHT DATA
Crew: 
Speed: 
484 kts
Altitude: 
36,010 ft
Stage Length: 
2,162.9 nm
Block Time: 
6.2 hrs
Flight Time: 
5.9 hrs
Fuel Used: 
37,268 lb
Cleared Route: KBOS TJAYY BOATT HEARR MARBB HYLND NOVON SSM APUNY OGSIQ LWT MLP KSEA
TRACK DATA
50,000 ft 1,000 kts
AIRCRAFT INFO AND CUMULATIVE STATS
Aircraft Type: 
B739BW
Registration: 
SELCAL: 
MSN/LN: 
30857 / 902
Operator: 
Total Flights: 
16
Total Block Time: 
50.1 hrs
Total Flight Time: 
45.8 hrs
Total Fuel Time: 
361,819 lb
DATALINK LOG | Newest first | Current as of: 2020-11-28 08:45:07
LABEL SEQUENCE CONTENT Dn/Up
QC191206:19▼ Dn
2U5425KSEA 240253Z 13008KT 10SM FEW020 BKN050 06/03 A2997 RMK AO2 SLP155 T00560033 58007▲ Up
2S5425KSEA▼ Dn
QB245100:23▼ Dn
QA123200:11 46▼ Dn
A32701CLEARED TO KSEA VIA HYLND5 HYLND NOVON SSM APUNY OGSIQ LWT MLP GLASR1. SQUAWK 3453.▲ Up
A32610CLEARED TO KSEA VIA HYLND5 HYLND NOVON SSM APUNY OGSIQ LWT MLP GLASR1. SQUAWK 5315.▲ Up
2U0423KBOS 232154Z 23012KT 10SM FEW100 BKN250 11/01 A2984 RMK AO2 PK WND 20026/2137 SLP103 T01110006▲ Up
2S0423KBOS▼ Dn
Q02459[LINK ACK]▲ Up
Q00349[LINK TEST]▼ Dn


AIRCRAFT HISTORY
FLIGHT DATE FLIGHT NO. ORIGIN DESTINATION CLEARED ROUTE BLOCK TIME FLIGHT TIME FUEL USED PILOT
2020-06-25ASA95KSEA PANC KSEA CAVOB RENBE RICHR TOMRE BANGR ARRIE FOCHE PRYCE BKA LAIRE JOH WITTI GAYLL SLOOW SILTY ANDDI WEWWO RW07R3.6 hrs3.3 hrs20,212 lbDan Downs
2020-06-04ASA1107KFLL KSEA KFLL THNDR LAL MGM LIT ICT RASCL KIRKE GLD LAR DNJ BEAMO PDT KSEA6.4 hrs6 hrs34,964 lbRyan Syferd
2020-03-25ASA325MMUN KFLL 1.7 hrs1.5 hrs35,122 lbRandall Smith
2020-03-24ASA324KSFO MMUN 4.7 hrs4.6 hrs27,875 lbRandall Smith
2020-03-21ASA321KLAX KSFO 1.4 hrs1 hrs7,663 lbCharles Harris
2020-02-08ASA519KRDD KLAX 1.8 hrs1.2 hrs10,147 lbSteven Perry
2020-01-19ASA119KSEA KRDD 1.5 hrs1.3 hrs9,471 lbRandall Smith
2019-12-23ASA15KBOS KSEA KBOS TJAYY BOATT HEARR MARBB HYLND NOVON SSM APUNY OGSIQ LWT MLP KSEA6.2 hrs5.9 hrs37,268 lbMichael Roth
2019-12-23ASA30KPDX KBOS KPDX RIVRR COSUG OKKOR LAVAA PDT HLN MLS KP06Y KP06C GOLLF KP03K SIKBO RAGIX MEDAV AHPAH JOSSY PONCT STOLI MNSTA SEETS DUBLE BASEZ JFUND AUTUM WINTA HRRIS ISLAY LWLND NOLEY RW22L4.9 hrs4.6 hrs27,159 lbMichael Roth
2019-12-23ASA383KSFO KPDX KSFO ORYAN SAHEY CIITY BCEEE GRTFL MACHU HUBUX IBALL AARON MOXEE PORTL TMBRS VANTZ FLOWR FFULL SSAIL MYCRO BBREW PUBBB MYCRO RW10R1.5 hrs1.2 hrs8,269 lbMichael Roth
2019-12-12ASA357KBZN KSFO 2.1 hrs1.9 hrs11,071 lbJhan Jensen
2019-12-12ASA1212KSAN KBZN 2.5 hrs2.2 hrs13,693 lbJhan Jensen
2019-12-11ASA1211KMEM KSAN 4.1 hrs3.8 hrs41,885 lbRandall Smith
2019-12-11ASA1211KDCA KMEM 2.5 hrs2.4 hrs39,218 lbRandall Smith
2019-12-11ASA1211KSFO KDCA 4.8 hrs4.5 hrs36,357 lbRandall Smith
2019-11-26ASA9660KOAK KSFO 0.4 hrs0.2 hrs1,444 lbKyle Weber